createdAt,value
2023-05-10T00:01:35.441Z,0.33
2023-05-10T00:03:38.274Z,0.30
2023-05-10T00:05:41.427Z,0.50
2023-05-10T00:07:45.687Z,0.30
2023-05-10T00:09:48.581Z,0.20
2023-05-10T00:11:51.276Z,0.30
2023-05-10T00:13:54.121Z,0.30
2023-05-10T00:15:56.801Z,0.20
2023-05-10T00:18:00.880Z,0.10
2023-05-10T00:20:05.803Z,0.20
2023-05-10T00:22:08.589Z,0.20
2023-05-10T00:24:11.358Z,0.20
2023-05-10T00:26:14.214Z,0.10
2023-05-10T00:28:21.160Z,0.10
2023-05-10T00:30:24.000Z,0.10
2023-05-10T00:32:26.703Z,0.20
2023-05-10T00:34:31.421Z,0.43
2023-05-10T00:36:34.126Z,0.10
2023-05-10T00:38:36.840Z,0.47
2023-05-10T00:40:39.663Z,0.20
2023-05-10T00:42:47.612Z,0.10
2023-05-10T00:44:50.426Z,0.10
2023-05-10T00:46:53.418Z,0.10
2023-05-10T00:48:56.278Z,0.20
2023-05-10T00:51:01.097Z,0.68
2023-05-10T00:53:04.488Z,0.20
2023-05-10T00:55:08.818Z,0.20
2023-05-10T00:57:11.556Z,0.10
2023-05-10T00:59:15.326Z,0.10
2023-05-10T01:01:19.582Z,0.10
2023-05-10T01:03:23.170Z,0.10
2023-05-10T01:05:26.531Z,0.20
2023-05-10T01:07:30.771Z,0.10
2023-05-10T01:09:34.690Z,0.30
2023-05-10T01:11:38.688Z,0.10
2023-05-10T01:13:44.126Z,0.20
2023-05-10T01:15:48.417Z,0.30
2023-05-10T01:17:53.309Z,0.30
2023-05-10T01:19:56.100Z,0.10
2023-05-10T01:22:17.445Z,0.10
2023-05-10T01:24:42.004Z,0.20
2023-05-10T01:27:05.624Z,0.20
2023-05-10T01:29:30.420Z,0.30
2023-05-10T01:31:44.271Z,0.30
2023-05-10T01:33:56.808Z,0.30
2023-05-10T01:36:07.603Z,0.28
2023-05-10T01:38:20.794Z,0.20
2023-05-10T01:40:31.451Z,0.30
2023-05-10T01:42:40.225Z,0.30
2023-05-10T01:44:48.450Z,0.32
2023-05-10T01:46:59.659Z,0.20
2023-05-10T01:49:05.986Z,0.30
2023-05-10T01:51:10.605Z,0.40
2023-05-10T01:53:15.159Z,0.30
2023-05-10T01:55:21.934Z,0.35
2023-05-10T01:57:29.717Z,0.40
2023-05-10T01:59:40.121Z,0.20
2023-05-10T02:01:44.788Z,0.43
2023-05-10T02:03:48.935Z,0.30
2023-05-10T02:05:55.629Z,0.40
2023-05-10T02:08:00.193Z,0.30
2023-05-10T02:10:04.799Z,0.30
2023-05-10T02:12:09.386Z,0.40
2023-05-10T02:14:13.548Z,0.30
2023-05-10T02:16:18.203Z,0.43
2023-05-10T02:18:21.248Z,0.30
2023-05-10T02:20:25.462Z,0.40
2023-05-10T02:22:30.598Z,0.43
2023-05-10T02:24:35.568Z,0.50
2023-05-10T02:26:40.270Z,0.30
2023-05-10T02:28:44.408Z,0.47
2023-05-10T02:30:49.516Z,0.50
2023-05-10T02:32:54.396Z,0.70
2023-05-10T02:34:58.335Z,0.30
2023-05-10T02:37:03.317Z,0.53
2023-05-10T02:39:10.974Z,0.40
2023-05-10T02:41:15.048Z,0.60
2023-05-10T02:43:20.409Z,0.53
2023-05-10T02:45:28.976Z,0.40
2023-05-10T02:47:32.346Z,0.40
2023-05-10T02:49:35.919Z,0.47
2023-05-10T02:51:45.403Z,0.60
2023-05-10T02:53:51.472Z,0.40
2023-05-10T02:56:00.794Z,0.40
2023-05-10T02:58:04.667Z,0.70
2023-05-10T03:00:09.497Z,0.80
2023-05-10T03:02:12.845Z,0.75
2023-05-10T03:04:16.122Z,0.70
2023-05-10T03:06:18.998Z,0.57
2023-05-10T03:08:21.847Z,0.70
2023-05-10T03:10:29.694Z,0.80
2023-05-10T03:12:48.941Z,0.93
2023-05-10T03:14:59.529Z,0.63
2023-05-10T03:17:12.349Z,0.80
2023-05-10T03:19:24.484Z,0.60
2023-05-10T03:21:31.037Z,1.00
2023-05-10T03:23:37.911Z,0.83
2023-05-10T03:25:44.702Z,1.35
2023-05-10T03:27:50.092Z,0.90
2023-05-10T03:29:54.608Z,0.98
2023-05-10T03:31:57.525Z,1.02
2023-05-10T03:34:00.365Z,0.80
2023-05-10T03:36:04.145Z,0.75
2023-05-10T03:38:06.886Z,0.77
2023-05-10T03:40:11.869Z,0.90
2023-05-10T03:42:18.856Z,0.90
2023-05-10T03:44:23.000Z,0.75
2023-05-10T03:46:25.764Z,0.80
2023-05-10T03:48:29.114Z,0.80
2023-05-10T03:50:31.883Z,0.90
2023-05-10T03:52:34.980Z,1.02
2023-05-10T03:54:37.816Z,1.10
2023-05-10T03:56:41.431Z,0.90
2023-05-10T03:58:44.254Z,0.73
2023-05-10T04:00:48.434Z,0.80
2023-05-10T04:02:51.433Z,0.97
2023-05-10T04:04:56.137Z,0.80
2023-05-10T04:06:58.943Z,0.90
2023-05-10T04:09:04.995Z,0.73
2023-05-10T04:11:09.439Z,0.90
2023-05-10T04:13:12.213Z,0.53
2023-05-10T04:15:15.196Z,0.65
2023-05-10T04:17:19.387Z,0.73
2023-05-10T04:19:22.289Z,0.65
2023-05-10T04:21:25.607Z,0.90
2023-05-10T04:23:29.317Z,0.70
2023-05-10T04:25:32.061Z,0.60
2023-05-10T04:27:34.887Z,0.90
2023-05-10T04:29:37.863Z,0.70
2023-05-10T04:31:40.751Z,0.70
2023-05-10T04:33:44.870Z,0.87
2023-05-10T04:35:47.820Z,0.82
2023-05-10T04:37:50.615Z,0.93
2023-05-10T04:39:53.692Z,1.23
2023-05-10T04:41:56.531Z,0.90
2023-05-10T04:43:59.280Z,1.10
2023-05-10T04:46:02.084Z,1.00
2023-05-10T04:48:05.180Z,1.23
2023-05-10T04:50:10.191Z,1.30
2023-05-10T04:52:13.376Z,0.97
2023-05-10T04:54:16.084Z,1.00
2023-05-10T04:56:18.790Z,0.85
2023-05-10T04:58:21.878Z,1.52
2023-05-10T05:00:25.585Z,1.00
2023-05-10T05:02:28.399Z,1.00
2023-05-10T05:04:31.920Z,1.13
2023-05-10T05:06:36.107Z,1.30
2023-05-10T05:08:41.886Z,1.10
2023-05-10T05:10:44.659Z,1.35
2023-05-10T05:12:47.431Z,1.00
2023-05-10T05:14:50.205Z,1.00
2023-05-10T05:16:52.987Z,1.07
2023-05-10T05:18:55.772Z,0.93
2023-05-10T05:20:58.528Z,1.07
2023-05-10T05:23:02.782Z,1.30
2023-05-10T05:25:06.566Z,1.10
2023-05-10T05:27:09.489Z,1.40
2023-05-10T05:29:12.202Z,1.10
2023-05-10T05:31:14.983Z,1.53
2023-05-10T05:33:17.784Z,1.38
2023-05-10T05:35:20.588Z,0.90
2023-05-10T05:37:23.699Z,1.48
2023-05-10T05:39:27.748Z,1.03
2023-05-10T05:41:30.530Z,1.40
2023-05-10T05:43:33.657Z,1.30
2023-05-10T05:45:37.371Z,1.40
2023-05-10T05:47:40.211Z,1.30
2023-05-10T05:49:43.053Z,1.20
2023-05-10T05:51:45.970Z,1.30
2023-05-10T05:53:48.917Z,1.47
2023-05-10T05:55:56.792Z,1.27
2023-05-10T05:57:59.748Z,1.38
2023-05-10T06:00:03.726Z,1.27
2023-05-10T06:02:15.349Z,1.40
2023-05-10T06:04:18.646Z,1.33
2023-05-10T06:06:21.464Z,1.10
2023-05-10T06:08:24.477Z,1.10
2023-05-10T06:10:27.627Z,1.20
2023-05-10T06:12:31.707Z,1.17
2023-05-10T06:14:34.529Z,1.07
2023-05-10T06:16:37.449Z,1.00
2023-05-10T06:18:40.168Z,1.30
2023-05-10T06:20:43.880Z,1.53
2023-05-10T06:22:46.692Z,1.17
2023-05-10T06:24:49.464Z,1.33
2023-05-10T06:26:52.247Z,1.53
2023-05-10T06:28:56.376Z,1.17
2023-05-10T06:30:59.124Z,1.30
2023-05-10T06:33:01.918Z,1.00
2023-05-10T06:35:05.040Z,0.87
2023-05-10T06:37:07.770Z,1.20
2023-05-10T06:39:10.502Z,1.00
2023-05-10T06:41:13.256Z,1.50
2023-05-10T06:43:16.150Z,1.93
2023-05-10T06:45:20.575Z,1.90
2023-05-10T06:47:23.592Z,2.20
2023-05-10T06:49:26.312Z,1.00
2023-05-10T06:51:29.068Z,0.80
2023-05-10T06:53:31.879Z,1.10
2023-05-10T06:55:34.688Z,1.10
2023-05-10T06:57:37.491Z,0.98
2023-05-10T06:59:40.360Z,0.90
2023-05-10T07:01:44.704Z,0.73
2023-05-10T07:03:47.560Z,1.00
2023-05-10T07:05:50.670Z,0.90
2023-05-10T07:07:53.677Z,1.10
2023-05-10T07:09:57.588Z,0.90
2023-05-10T07:12:00.689Z,0.87
2023-05-10T07:14:03.537Z,0.87
2023-05-10T07:16:07.388Z,1.27
2023-05-10T07:18:11.592Z,1.27
2023-05-10T07:20:14.698Z,0.93
2023-05-10T07:22:18.631Z,0.73
2023-05-10T07:24:21.419Z,1.40
2023-05-10T07:26:24.991Z,1.10
2023-05-10T07:28:27.736Z,1.00
2023-05-10T07:30:30.745Z,1.40
2023-05-10T07:32:33.621Z,1.10
2023-05-10T07:34:37.898Z,0.80
2023-05-10T07:36:40.664Z,0.80
2023-05-10T07:38:43.394Z,0.80
2023-05-10T07:40:46.174Z,0.73
2023-05-10T07:42:48.869Z,1.10
2023-05-10T07:44:52.044Z,0.80
2023-05-10T07:46:54.783Z,0.57
2023-05-10T07:48:57.578Z,0.90
2023-05-10T07:51:01.671Z,0.60
2023-05-10T07:53:04.371Z,1.00
2023-05-10T07:55:08.606Z,2.50
2023-05-10T07:57:11.656Z,2.17
2023-05-10T07:59:17.814Z,1.00
2023-05-10T08:01:20.767Z,1.80
2023-05-10T08:03:23.553Z,3.90
2023-05-10T08:05:26.313Z,1.10
2023-05-10T08:07:30.434Z,0.57
2023-05-10T08:09:33.224Z,2.27
2023-05-10T08:11:36.216Z,0.73
2023-05-10T08:13:39.012Z,0.77
2023-05-10T08:15:41.849Z,0.77
2023-05-10T08:17:45.037Z,0.60
2023-05-10T08:19:47.829Z,5.37
2023-05-10T08:21:50.605Z,0.90
2023-05-10T08:23:54.646Z,0.73
2023-05-10T08:25:57.398Z,1.60
2023-05-10T08:28:00.137Z,0.47
2023-05-10T08:30:02.910Z,3.17
2023-05-10T08:32:06.205Z,1.37
2023-05-10T08:34:09.254Z,1.20
2023-05-10T08:36:12.042Z,1.57
2023-05-10T08:38:14.811Z,0.30
2023-05-10T08:40:21.594Z,0.73
2023-05-10T08:42:28.078Z,1.20
2023-05-10T08:44:32.749Z,5.33
2023-05-10T08:46:39.788Z,0.60
2023-05-10T08:48:43.626Z,0.50
2023-05-10T08:50:48.888Z,0.40
2023-05-10T08:52:54.992Z,0.80
2023-05-10T08:54:58.145Z,1.17
2023-05-10T08:57:02.676Z,0.30
2023-05-10T08:59:05.572Z,0.30
2023-05-10T09:01:09.610Z,1.03
2023-05-10T09:03:12.456Z,0.90
2023-05-10T09:05:17.167Z,0.73
2023-05-10T09:07:21.557Z,0.80
2023-05-10T09:09:25.993Z,0.30
2023-05-10T09:11:30.063Z,0.70
2023-05-10T09:13:34.605Z,0.50
2023-05-10T09:15:37.291Z,0.97
2023-05-10T09:17:40.864Z,0.90
2023-05-10T09:19:43.693Z,0.10
2023-05-10T09:21:46.449Z,0.30
2023-05-10T09:23:51.020Z,0.20
2023-05-10T09:26:05.503Z,0.40
2023-05-10T09:28:09.373Z,0.30
2023-05-10T09:30:18.167Z,0.30
2023-05-10T09:32:20.907Z,0.50
2023-05-10T09:34:31.470Z,0.20
2023-05-10T09:36:34.613Z,0.40
2023-05-10T09:38:47.767Z,0.87
2023-05-10T09:40:55.334Z,0.30
2023-05-10T09:42:59.410Z,0.40
2023-05-10T09:45:03.890Z,0.50
2023-05-10T09:47:08.082Z,0.50
2023-05-10T09:49:16.265Z,0.40
2023-05-10T09:51:22.510Z,0.40
2023-05-10T09:53:25.224Z,0.40
2023-05-10T09:55:40.625Z,0.50
2023-05-10T09:57:43.615Z,0.60
2023-05-10T09:59:46.557Z,0.53
2023-05-10T10:01:52.137Z,0.20
2023-05-10T10:03:58.749Z,0.60
2023-05-10T10:06:01.504Z,0.30
2023-05-10T10:08:06.026Z,0.57
2023-05-10T10:10:12.480Z,0.47
2023-05-10T10:12:15.376Z,0.50
2023-05-10T10:14:20.417Z,0.40
2023-05-10T10:16:23.659Z,0.30
2023-05-10T10:18:28.246Z,0.40
2023-05-10T10:20:32.421Z,0.50
2023-05-10T10:22:35.507Z,0.30
2023-05-10T10:24:38.380Z,0.30
2023-05-10T10:26:43.707Z,0.30
2023-05-10T10:28:54.112Z,0.50
2023-05-10T10:30:58.581Z,0.33
2023-05-10T10:33:27.925Z,0.30
2023-05-10T10:35:33.658Z,0.37
2023-05-10T10:37:47.196Z,0.20
2023-05-10T10:39:50.651Z,0.20
2023-05-10T10:41:55.273Z,0.50
2023-05-10T10:44:35.410Z,0.33
2023-05-10T10:47:02.063Z,0.33
2023-05-10T10:49:12.313Z,0.70
2023-05-10T10:51:17.072Z,0.50
2023-05-10T10:53:19.877Z,0.50
2023-05-10T10:55:23.424Z,0.43
2023-05-10T10:57:27.517Z,0.30
2023-05-10T10:59:30.395Z,0.60
2023-05-10T11:01:35.388Z,0.50
2023-05-10T11:03:38.372Z,0.50
2023-05-10T11:05:44.563Z,0.40
2023-05-10T11:07:55.822Z,0.57
2023-05-10T11:10:06.597Z,0.40
2023-05-10T11:12:11.259Z,0.50
2023-05-10T11:14:14.111Z,0.70
2023-05-10T11:16:19.198Z,0.47
2023-05-10T11:18:23.208Z,0.40
2023-05-10T11:20:34.159Z,0.70
2023-05-10T11:22:52.429Z,0.40
2023-05-10T11:25:03.389Z,0.40
2023-05-10T11:27:06.297Z,0.60
2023-05-10T11:29:09.537Z,0.80
2023-05-10T11:31:13.535Z,0.60
2023-05-10T11:33:20.367Z,0.60
2023-05-10T11:35:23.125Z,1.03
2023-05-10T11:37:25.859Z,0.80
2023-05-10T11:39:29.785Z,0.70
2023-05-10T11:41:34.101Z,0.73
2023-05-10T11:43:39.174Z,0.93
2023-05-10T11:45:43.425Z,1.03
2023-05-10T11:47:46.239Z,0.63
2023-05-10T11:49:51.427Z,0.87
2023-05-10T11:51:54.194Z,0.70
2023-05-10T11:53:58.522Z,0.50
2023-05-10T11:56:06.066Z,0.90
2023-05-10T11:58:10.197Z,0.50
2023-05-10T12:00:14.154Z,0.60
2023-05-10T12:02:18.998Z,0.63
2023-05-10T12:04:22.270Z,0.40
2023-05-10T12:06:28.071Z,0.60
2023-05-10T12:08:32.285Z,0.77
2023-05-10T12:10:36.692Z,0.60
2023-05-10T12:12:40.824Z,0.50
2023-05-10T12:14:44.926Z,0.90
2023-05-10T12:16:47.689Z,0.83
2023-05-10T12:18:51.958Z,0.60
2023-05-10T12:20:55.540Z,0.60
2023-05-10T12:23:00.695Z,0.60
2023-05-10T12:25:04.625Z,0.60
2023-05-10T12:27:09.045Z,0.80
2023-05-10T12:29:16.581Z,0.80
2023-05-10T12:31:20.839Z,0.53
2023-05-10T12:33:23.598Z,0.67
2023-05-10T12:35:26.561Z,0.60
2023-05-10T12:37:30.161Z,0.70
2023-05-10T12:39:42.881Z,0.73
2023-05-10T12:41:45.681Z,1.37
2023-05-10T12:43:49.045Z,0.67
2023-05-10T12:45:51.889Z,0.83
2023-05-10T12:47:56.005Z,0.97
2023-05-10T12:49:58.932Z,0.70
2023-05-10T12:52:01.647Z,0.97
2023-05-10T12:54:04.616Z,1.70
2023-05-10T12:56:08.353Z,1.27
2023-05-10T12:58:12.378Z,1.53
2023-05-10T13:00:17.769Z,0.87
2023-05-10T13:02:22.007Z,0.60
2023-05-10T13:04:26.177Z,0.70
2023-05-10T13:06:29.087Z,0.90
2023-05-10T13:08:34.738Z,0.60
2023-05-10T13:10:37.587Z,1.10
2023-05-10T13:12:40.366Z,0.77
2023-05-10T13:14:43.150Z,0.73
2023-05-10T13:16:46.377Z,0.63
2023-05-10T13:18:49.412Z,0.90
2023-05-10T13:20:53.597Z,0.87
2023-05-10T13:22:56.344Z,0.80
2023-05-10T13:24:59.118Z,0.50
2023-05-10T13:27:01.879Z,0.77
2023-05-10T13:29:04.776Z,0.73
2023-05-10T13:31:07.495Z,1.10
2023-05-10T13:33:10.270Z,0.80
2023-05-10T13:35:12.997Z,0.57
2023-05-10T13:37:17.109Z,0.60
2023-05-10T13:39:20.225Z,0.63
2023-05-10T13:41:22.944Z,0.60
2023-05-10T13:43:26.035Z,0.43
2023-05-10T13:45:28.773Z,0.53
2023-05-10T13:47:31.913Z,0.70
2023-05-10T13:49:34.919Z,0.77
2023-05-10T13:51:37.771Z,1.13
2023-05-10T13:53:42.393Z,0.60
2023-05-10T13:55:45.135Z,0.67
2023-05-10T13:57:47.909Z,0.80
2023-05-10T13:59:50.669Z,0.83
2023-05-10T14:01:53.790Z,0.60
2023-05-10T14:03:56.578Z,0.40
2023-05-10T14:05:59.404Z,0.40
2023-05-10T14:08:02.366Z,0.60
2023-05-10T14:10:07.136Z,1.03
2023-05-10T14:12:09.984Z,0.47
2023-05-10T14:14:13.639Z,0.50
2023-05-10T14:16:16.656Z,0.50
2023-05-10T14:18:19.541Z,0.50
2023-05-10T14:20:22.318Z,0.60
2023-05-10T14:22:25.076Z,0.50
2023-05-10T14:24:27.880Z,0.60
2023-05-10T14:26:32.337Z,0.50
2023-05-10T14:28:35.119Z,0.60
2023-05-10T14:30:37.929Z,0.50
2023-05-10T14:32:40.673Z,0.53
2023-05-10T14:34:43.441Z,0.83
2023-05-10T14:36:46.219Z,0.80
2023-05-10T14:38:48.957Z,0.60
2023-05-10T14:40:51.683Z,0.40
2023-05-10T14:42:55.807Z,0.60
2023-05-10T14:44:58.521Z,0.50
2023-05-10T14:47:01.348Z,0.70
2023-05-10T14:49:04.326Z,1.27
2023-05-10T14:51:07.623Z,0.83
2023-05-10T14:53:10.509Z,1.57
2023-05-10T14:55:13.287Z,0.70
2023-05-10T14:57:16.176Z,0.63
2023-05-10T14:59:20.252Z,0.50
2023-05-10T15:01:23.515Z,0.80
2023-05-10T15:03:27.160Z,0.83
2023-05-10T15:05:30.333Z,0.60
2023-05-10T15:07:33.402Z,1.53
2023-05-10T15:09:36.192Z,1.73
2023-05-10T15:11:38.912Z,1.90
2023-05-10T15:13:41.651Z,0.80
2023-05-10T15:15:45.900Z,0.83
2023-05-10T15:17:49.689Z,0.40
2023-05-10T15:19:52.539Z,0.70
2023-05-10T15:21:56.300Z,0.53
2023-05-10T15:23:59.090Z,0.90
2023-05-10T15:26:03.766Z,0.43
2023-05-10T15:28:06.834Z,0.40
2023-05-10T15:30:10.592Z,2.47
2023-05-10T15:32:14.618Z,3.17
2023-05-10T15:34:17.713Z,0.67
2023-05-10T15:36:20.622Z,0.57
2023-05-10T15:38:23.536Z,2.30
2023-05-10T15:40:26.323Z,2.27
2023-05-10T15:42:29.171Z,1.33
2023-05-10T15:44:32.019Z,1.10
2023-05-10T15:46:34.726Z,0.73
2023-05-10T15:48:40.141Z,1.07
2023-05-10T15:50:42.865Z,0.70
2023-05-10T15:52:45.620Z,0.80
2023-05-10T15:54:48.347Z,0.70
2023-05-10T15:56:51.025Z,0.80
2023-05-10T15:58:53.817Z,0.67
2023-05-10T16:00:57.615Z,0.80
2023-05-10T16:03:00.811Z,1.00
2023-05-10T16:05:05.764Z,1.93
2023-05-10T16:07:08.457Z,1.30
2023-05-10T16:09:11.504Z,0.80
2023-05-10T16:11:14.227Z,0.70
2023-05-10T16:13:17.067Z,2.67
2023-05-10T16:15:21.651Z,0.90
2023-05-10T16:17:24.540Z,0.70
2023-05-10T16:19:29.751Z,1.20
2023-05-10T16:21:34.542Z,0.80
2023-05-10T16:23:37.607Z,0.43
2023-05-10T16:25:40.412Z,0.83
2023-05-10T16:27:43.132Z,1.30
2023-05-10T16:29:45.875Z,1.00
2023-05-10T16:31:48.679Z,1.57
2023-05-10T16:33:51.396Z,0.67
2023-05-10T16:35:54.119Z,0.73
2023-05-10T16:37:58.422Z,1.67
2023-05-10T16:40:01.400Z,0.87
2023-05-10T16:42:04.281Z,0.80
2023-05-10T16:44:07.044Z,0.70
2023-05-10T16:46:12.958Z,1.13
2023-05-10T16:48:15.647Z,2.40
2023-05-10T16:50:18.407Z,4.13
2023-05-10T16:52:21.167Z,2.97
2023-05-10T16:54:25.826Z,2.77
2023-05-10T16:56:28.599Z,1.83
2023-05-10T16:58:31.374Z,1.70
2023-05-10T17:00:34.137Z,1.90
2023-05-10T17:02:36.973Z,1.37
2023-05-10T17:04:39.764Z,1.60
2023-05-10T17:06:42.493Z,1.30
2023-05-10T17:08:45.566Z,1.40
2023-05-10T17:10:49.741Z,1.23
2023-05-10T17:12:53.650Z,1.47
2023-05-10T17:14:56.426Z,1.00
2023-05-10T17:16:59.344Z,1.50
2023-05-10T17:19:02.294Z,1.30
2023-05-10T17:21:05.291Z,1.00
2023-05-10T17:23:08.073Z,2.00
2023-05-10T17:25:11.336Z,1.13
2023-05-10T17:27:15.649Z,2.40
2023-05-10T17:29:18.403Z,0.87
2023-05-10T17:31:21.120Z,1.00
2023-05-10T17:33:23.895Z,3.83
2023-05-10T17:35:26.712Z,1.57
2023-05-10T17:37:29.845Z,1.00
2023-05-10T17:39:32.626Z,0.98
2023-05-10T17:41:35.412Z,1.40
2023-05-10T17:43:39.517Z,1.13
2023-05-10T17:45:42.218Z,0.67
2023-05-10T17:47:44.980Z,0.73
2023-05-10T17:49:47.743Z,0.50
2023-05-10T17:51:50.750Z,0.50
2023-05-10T17:53:53.717Z,1.67
2023-05-10T17:55:58.875Z,0.27
2023-05-10T17:58:01.731Z,23.73
2023-05-10T18:00:08.724Z,25.83
2023-05-10T18:02:11.597Z,10.40
2023-05-10T18:04:14.410Z,8.43
2023-05-10T18:06:17.325Z,15.83
2023-05-10T18:08:22.863Z,4.20
2023-05-10T18:10:25.954Z,2.13
2023-05-10T18:12:28.828Z,2.53
2023-05-10T18:14:40.485Z,3.63
2023-05-10T18:16:45.604Z,0.90
2023-05-10T18:18:48.966Z,0.50
2023-05-10T18:20:56.710Z,0.70
2023-05-10T18:22:59.688Z,0.65
2023-05-10T18:25:02.477Z,0.60
2023-05-10T18:27:05.861Z,0.90
2023-05-10T18:29:08.804Z,0.90
2023-05-10T18:31:12.585Z,0.80
2023-05-10T18:33:17.960Z,0.70
2023-05-10T18:35:21.447Z,0.95
2023-05-10T18:37:25.241Z,1.00
2023-05-10T18:39:28.046Z,0.70
2023-05-10T18:41:30.898Z,1.25
2023-05-10T18:43:34.805Z,0.95
2023-05-10T18:45:39.005Z,1.42
2023-05-10T18:47:41.861Z,0.95
2023-05-10T18:49:46.251Z,1.20
2023-05-10T18:51:48.947Z,1.07
2023-05-10T18:53:51.770Z,1.00
2023-05-10T18:55:58.859Z,1.33
2023-05-10T18:58:01.777Z,1.23
2023-05-10T19:00:05.522Z,3.80
2023-05-10T19:02:09.142Z,1.60
2023-05-10T19:04:11.983Z,3.00
2023-05-10T19:06:16.210Z,5.87
2023-05-10T19:08:19.165Z,1.50
2023-05-10T19:10:22.188Z,1.30
2023-05-10T19:12:25.104Z,1.75
2023-05-10T19:14:27.858Z,1.80
2023-05-10T19:16:30.877Z,0.90
2023-05-10T19:18:34.215Z,0.87
2023-05-10T19:20:38.086Z,0.88
2023-05-10T19:22:57.863Z,1.17
2023-05-10T19:25:05.863Z,1.30
2023-05-10T19:27:09.221Z,0.80
2023-05-10T19:29:11.922Z,0.80
2023-05-10T19:31:14.769Z,1.00
2023-05-10T19:33:19.215Z,1.30
2023-05-10T19:35:21.930Z,1.70
2023-05-10T19:37:24.640Z,2.78
2023-05-10T19:39:30.802Z,1.70
2023-05-10T19:41:33.491Z,2.27
2023-05-10T19:43:37.904Z,2.22
2023-05-10T19:45:40.714Z,1.80
2023-05-10T19:47:43.620Z,1.00
2023-05-10T19:49:46.481Z,3.65
2023-05-10T19:51:49.278Z,1.55
2023-05-10T19:53:51.936Z,3.72
2023-05-10T19:55:56.453Z,4.57
2023-05-10T19:58:00.533Z,2.80
2023-05-10T20:00:04.958Z,2.23
2023-05-10T20:02:13.915Z,2.40
2023-05-10T20:04:16.711Z,2.05
2023-05-10T20:06:19.462Z,2.07
2023-05-10T20:08:22.152Z,1.95
2023-05-10T20:10:26.883Z,4.40
2023-05-10T20:12:31.222Z,10.43
2023-05-10T20:14:33.938Z,11.45
2023-05-10T20:16:36.655Z,8.17
2023-05-10T20:18:39.399Z,10.57
2023-05-10T20:20:42.279Z,9.05
2023-05-10T20:22:45.760Z,7.90
2023-05-10T20:24:48.542Z,7.35
2023-05-10T20:26:51.260Z,7.57
2023-05-10T20:28:55.298Z,8.25
2023-05-10T20:30:58.794Z,7.75
2023-05-10T20:33:01.484Z,3.92
2023-05-10T20:35:04.263Z,3.63
2023-05-10T20:37:07.056Z,4.70
2023-05-10T20:39:10.415Z,3.80
2023-05-10T20:41:13.155Z,2.90
2023-05-10T20:43:15.837Z,1.10
2023-05-10T20:45:19.885Z,0.57
2023-05-10T20:47:23.857Z,1.15
2023-05-10T20:49:27.965Z,1.98
2023-05-10T20:51:33.223Z,2.60
2023-05-10T20:53:36.042Z,1.70
2023-05-10T20:55:38.781Z,0.90
2023-05-10T20:57:41.523Z,0.70
2023-05-10T20:59:44.303Z,1.38
2023-05-10T21:01:48.514Z,1.48
2023-05-10T21:03:51.319Z,2.40
2023-05-10T21:05:54.157Z,2.60
2023-05-10T21:07:56.923Z,1.92
2023-05-10T21:09:59.685Z,4.28
2023-05-10T21:12:03.235Z,2.50
2023-05-10T21:14:06.059Z,3.17
2023-05-10T21:16:08.992Z,2.45
2023-05-10T21:18:13.107Z,2.00
2023-05-10T21:20:16.211Z,0.90
2023-05-10T21:22:19.138Z,0.50
2023-05-10T21:24:21.890Z,0.80
2023-05-10T21:26:24.703Z,0.73
2023-05-10T21:28:27.451Z,0.70
2023-05-10T21:30:30.261Z,0.50
2023-05-10T21:32:33.153Z,0.77
2023-05-10T21:34:37.305Z,0.68
2023-05-10T21:36:40.018Z,0.47
2023-05-10T21:38:44.476Z,0.50
2023-05-10T21:40:47.252Z,0.63
2023-05-10T21:42:50.026Z,0.60
2023-05-10T21:44:52.874Z,0.50
2023-05-10T21:46:55.669Z,2.10
2023-05-10T21:48:58.422Z,0.98
2023-05-10T21:51:02.698Z,5.95
2023-05-10T21:53:05.603Z,6.88
2023-05-10T21:55:09.804Z,4.13
2023-05-10T21:57:12.595Z,2.80
2023-05-10T21:59:15.353Z,1.60
2023-05-10T22:01:18.156Z,0.50
2023-05-10T22:03:21.057Z,0.68
2023-05-10T22:05:24.125Z,0.63
2023-05-10T22:07:28.123Z,0.47
2023-05-10T22:09:30.764Z,0.50
2023-05-10T22:11:33.648Z,0.60
2023-05-10T22:13:36.331Z,0.50
2023-05-10T22:15:39.384Z,2.22
2023-05-10T22:17:42.144Z,1.55
2023-05-10T22:19:44.924Z,9.30
2023-05-10T22:21:47.643Z,5.70
2023-05-10T22:23:51.769Z,6.03
2023-05-10T22:25:54.473Z,5.30
2023-05-10T22:27:57.140Z,12.90
2023-05-10T22:29:59.780Z,3.20
2023-05-10T22:32:05.567Z,5.72
2023-05-10T22:34:08.280Z,4.43
2023-05-10T22:36:10.908Z,2.90
2023-05-10T22:38:13.645Z,1.02
2023-05-10T22:40:18.080Z,0.55
2023-05-10T22:42:20.954Z,0.55
2023-05-10T22:44:23.613Z,0.50
2023-05-10T22:46:26.343Z,0.60
2023-05-10T22:48:29.748Z,0.60
2023-05-10T22:50:32.621Z,0.70
2023-05-10T22:52:35.263Z,0.65
2023-05-10T22:54:37.997Z,0.90
2023-05-10T22:56:42.554Z,1.30
2023-05-10T22:58:45.427Z,3.33
2023-05-10T23:00:48.170Z,5.47
2023-05-10T23:02:51.571Z,5.50
2023-05-10T23:04:54.446Z,2.83
2023-05-10T23:06:57.234Z,0.60
2023-05-10T23:09:00.147Z,0.50
2023-05-10T23:11:02.859Z,0.82
2023-05-10T23:13:07.833Z,1.70
2023-05-10T23:15:11.535Z,0.90
2023-05-10T23:17:14.440Z,3.38
2023-05-10T23:19:17.161Z,3.20
2023-05-10T23:21:19.943Z,4.60
2023-05-10T23:23:22.631Z,1.80
2023-05-10T23:25:25.606Z,1.52
2023-05-10T23:27:29.897Z,1.23
2023-05-10T23:29:34.770Z,1.00
2023-05-10T23:31:37.660Z,1.70
2023-05-10T23:33:40.437Z,1.42
2023-05-10T23:35:43.513Z,5.90
2023-05-10T23:37:46.209Z,6.90
2023-05-10T23:39:48.917Z,4.82
2023-05-10T23:41:51.942Z,5.57
2023-05-10T23:43:55.066Z,7.28
2023-05-10T23:45:59.503Z,1.80
2023-05-10T23:48:02.334Z,1.73
2023-05-10T23:50:06.022Z,2.03
2023-05-10T23:52:08.852Z,1.67
2023-05-10T23:54:12.227Z,3.50
2023-05-10T23:56:14.980Z,2.70
2023-05-10T23:58:17.740Z,4.00
